createdAt,value
2023-05-14T00:01:04.751Z,101933.34
2023-05-14T00:03:34.157Z,101927.09
2023-05-14T00:06:02.091Z,101926.22
2023-05-14T00:08:32.841Z,101929.75
2023-05-14T00:11:05.535Z,101924.50
2023-05-14T00:13:33.513Z,101925.44
2023-05-14T00:16:01.572Z,101930.81
2023-05-14T00:18:29.618Z,101928.13
2023-05-14T00:20:59.004Z,101930.81
2023-05-14T00:23:27.058Z,101928.13
2023-05-14T00:25:55.002Z,101921.03
2023-05-14T00:28:23.141Z,101926.41
2023-05-14T00:30:51.088Z,101928.19
2023-05-14T00:33:19.086Z,101919.28
2023-05-14T00:35:47.070Z,101918.41
2023-05-14T00:38:17.668Z,101912.25
2023-05-14T00:40:51.107Z,101907.78
2023-05-14T00:43:19.709Z,101907.81
2023-05-14T00:45:52.766Z,101906.03
2023-05-14T00:48:21.521Z,101906.97
2023-05-14T00:50:50.994Z,101905.22
2023-05-14T00:53:21.717Z,101903.50
2023-05-14T00:55:51.084Z,101904.38
2023-05-14T00:58:20.154Z,101896.31
2023-05-14T01:00:48.305Z,101896.31
2023-05-14T01:03:16.614Z,101898.13
2023-05-14T01:05:55.024Z,101891.03
2023-05-14T01:08:33.691Z,101899.06
2023-05-14T01:11:07.928Z,101893.69
2023-05-14T01:13:46.446Z,101893.78
2023-05-14T01:16:20.061Z,101893.78
2023-05-14T01:18:52.001Z,101893.78
2023-05-14T01:21:36.360Z,101890.25
2023-05-14T01:24:04.783Z,101892.06
2023-05-14T01:26:32.914Z,101889.38
2023-05-14T01:29:09.545Z,101887.66
2023-05-14T01:31:40.062Z,101884.97
2023-05-14T01:34:09.962Z,101883.22
2023-05-14T01:36:41.568Z,101883.28
2023-05-14T01:39:10.592Z,101882.34
2023-05-14T01:41:40.232Z,101882.34
2023-05-14T01:44:09.933Z,101880.63
2023-05-14T01:46:38.121Z,101872.66
2023-05-14T01:49:06.188Z,101881.56
2023-05-14T01:51:36.334Z,101882.50
2023-05-14T01:54:05.872Z,101878.94
2023-05-14T01:56:33.796Z,101879.91
2023-05-14T01:59:01.745Z,101873.66
2023-05-14T02:01:29.793Z,101869.25
2023-05-14T02:03:58.071Z,101875.47
2023-05-14T02:06:26.149Z,101868.31
2023-05-14T02:08:54.186Z,101870.13
2023-05-14T02:11:23.413Z,101871.03
2023-05-14T02:13:51.635Z,101879.97
2023-05-14T02:16:19.950Z,101871.03
2023-05-14T02:18:48.035Z,101862.09
2023-05-14T02:21:16.048Z,101863.00
2023-05-14T02:23:44.269Z,101861.22
2023-05-14T02:26:12.613Z,101860.31
2023-05-14T02:28:41.979Z,101864.81
2023-05-14T02:31:10.021Z,101854.09
2023-05-14T02:33:37.991Z,101850.66
2023-05-14T02:36:06.088Z,101850.56
2023-05-14T02:38:34.031Z,101847.88
2023-05-14T02:41:01.988Z,101847.00
2023-05-14T02:43:29.958Z,101839.94
2023-05-14T02:45:59.278Z,101847.97
2023-05-14T02:48:27.296Z,101846.16
2023-05-14T02:50:55.309Z,101850.66
2023-05-14T02:53:23.191Z,101855.13
2023-05-14T02:55:51.100Z,101859.53
2023-05-14T02:58:19.199Z,101849.78
2023-05-14T03:00:53.622Z,101854.28
2023-05-14T03:03:23.487Z,101853.38
2023-05-14T03:05:52.113Z,101849.78
2023-05-14T03:08:20.052Z,101852.50
2023-05-14T03:10:50.211Z,101848.09
2023-05-14T03:13:20.063Z,101848.09
2023-05-14T03:15:48.715Z,101850.78
2023-05-14T03:18:16.703Z,101849.94
2023-05-14T03:20:45.997Z,101841.03
2023-05-14T03:23:14.927Z,101844.56
2023-05-14T03:25:43.082Z,101849.06
2023-05-14T03:28:11.040Z,101838.38
2023-05-14T03:30:39.074Z,101835.69
2023-05-14T03:33:07.264Z,101826.00
2023-05-14T03:35:35.211Z,101829.56
2023-05-14T03:38:04.488Z,101832.22
2023-05-14T03:40:32.507Z,101826.00
2023-05-14T03:43:00.427Z,101831.41
2023-05-14T03:45:31.172Z,101831.59
2023-05-14T03:47:59.233Z,101825.34
2023-05-14T03:50:27.300Z,101825.44
2023-05-14T03:52:55.290Z,101826.38
2023-05-14T03:55:24.735Z,101826.44
2023-05-14T03:57:52.836Z,101827.28
2023-05-14T04:00:21.388Z,101821.16
2023-05-14T04:02:49.702Z,101822.97
2023-05-14T04:05:17.916Z,101817.66
2023-05-14T04:07:46.490Z,101823.97
2023-05-14T04:10:14.966Z,101818.69
2023-05-14T04:12:44.279Z,101818.63
2023-05-14T04:15:12.687Z,101822.25
2023-05-14T04:17:40.712Z,101830.28
2023-05-14T04:20:09.754Z,101826.75
2023-05-14T04:22:37.659Z,101818.75
2023-05-14T04:25:09.087Z,101824.13
2023-05-14T04:27:37.109Z,101820.56
2023-05-14T04:30:08.468Z,101818.94
2023-05-14T04:32:36.586Z,101822.38
2023-05-14T04:35:05.291Z,101821.53
2023-05-14T04:37:33.359Z,101822.38
2023-05-14T04:40:01.540Z,101826.03
2023-05-14T04:42:32.441Z,101826.03
2023-05-14T04:45:00.416Z,101839.41
2023-05-14T04:47:29.868Z,101831.38
2023-05-14T04:49:58.449Z,101824.28
2023-05-14T04:52:27.254Z,101822.47
2023-05-14T04:54:56.939Z,101825.06
2023-05-14T04:57:25.122Z,101828.69
2023-05-14T04:59:53.142Z,101827.75
2023-05-14T05:02:21.318Z,101826.88
2023-05-14T05:04:50.622Z,101825.06
2023-05-14T05:07:21.145Z,101820.53
2023-05-14T05:09:49.112Z,101833.03
2023-05-14T05:12:17.076Z,101830.38
2023-05-14T05:14:45.046Z,101829.34
2023-05-14T05:17:17.303Z,101826.66
2023-05-14T05:19:48.155Z,101831.06
2023-05-14T05:22:17.506Z,101831.97
2023-05-14T05:24:49.799Z,101833.59
2023-05-14T05:27:18.092Z,101838.00
2023-05-14T05:29:46.332Z,101837.00
2023-05-14T05:32:14.469Z,101837.88
2023-05-14T05:34:42.597Z,101839.63
2023-05-14T05:37:12.865Z,101840.41
2023-05-14T05:39:42.256Z,101834.09
2023-05-14T05:42:10.484Z,101842.06
2023-05-14T05:44:40.932Z,101840.19
2023-05-14T05:47:08.937Z,101832.13
2023-05-14T05:49:37.707Z,101844.56
2023-05-14T05:52:06.322Z,101841.78
2023-05-14T05:54:37.223Z,101838.19
2023-05-14T05:57:06.915Z,101836.38
2023-05-14T05:59:34.856Z,101842.59
2023-05-14T06:02:06.024Z,101840.78
2023-05-14T06:04:34.045Z,101849.59
2023-05-14T06:07:03.647Z,101849.59
2023-05-14T06:09:31.705Z,101844.19
2023-05-14T06:11:59.666Z,101850.41
2023-05-14T06:14:28.946Z,101844.09
2023-05-14T06:16:56.943Z,101846.78
2023-05-14T06:19:24.977Z,101844.97
2023-05-14T06:21:53.005Z,101840.50
2023-05-14T06:24:21.284Z,101848.47
2023-05-14T06:26:50.532Z,101843.09
2023-05-14T06:29:18.472Z,101848.47
2023-05-14T06:31:50.466Z,101851.06
2023-05-14T06:34:18.493Z,101851.00
2023-05-14T06:36:46.592Z,101847.44
2023-05-14T06:39:14.489Z,101852.81
2023-05-14T06:41:42.499Z,101853.69
2023-05-14T06:44:11.009Z,101852.81
2023-05-14T06:46:39.056Z,101844.69
2023-05-14T06:49:08.551Z,101849.19
2023-05-14T06:51:36.626Z,101845.53
2023-05-14T06:54:04.657Z,101848.22
2023-05-14T06:56:32.581Z,101840.09
2023-05-14T06:59:03.029Z,101832.97
2023-05-14T07:01:31.472Z,101832.97
2023-05-14T07:04:02.239Z,101834.69
2023-05-14T07:06:32.521Z,101840.03
2023-05-14T07:09:02.347Z,101836.41
2023-05-14T07:11:30.511Z,101835.47
2023-05-14T07:13:58.492Z,101838.13
2023-05-14T07:16:26.553Z,101837.22
2023-05-14T07:18:54.568Z,101836.56
2023-05-14T07:21:22.581Z,101834.09
2023-05-14T07:23:51.888Z,101833.63
2023-05-14T07:26:19.874Z,101834.75
2023-05-14T07:28:50.195Z,101828.81
2023-05-14T07:31:18.355Z,101830.63
2023-05-14T07:33:48.968Z,101829.97
2023-05-14T07:36:17.118Z,101830.06
2023-05-14T07:38:45.109Z,101826.59
2023-05-14T07:41:14.609Z,101827.47
2023-05-14T07:43:42.550Z,101818.47
2023-05-14T07:46:10.655Z,101817.66
2023-05-14T07:48:38.624Z,101820.28
2023-05-14T07:51:06.647Z,101814.94
2023-05-14T07:53:34.636Z,101814.06
2023-05-14T07:56:02.749Z,101806.03
2023-05-14T07:58:32.159Z,101814.84
2023-05-14T08:01:01.401Z,101813.91
2023-05-14T08:03:29.398Z,101807.63
2023-05-14T08:05:57.425Z,101804.84
2023-05-14T08:08:27.363Z,101803.03
2023-05-14T08:10:55.800Z,101812.84
2023-05-14T08:13:23.941Z,101813.63
2023-05-14T08:15:53.287Z,101819.78
2023-05-14T08:18:21.247Z,101810.78
2023-05-14T08:20:49.429Z,101811.66
2023-05-14T08:23:17.445Z,101808.97
2023-05-14T08:25:47.941Z,101814.25
2023-05-14T08:28:15.873Z,101802.56
2023-05-14T08:30:43.916Z,101814.09
2023-05-14T08:33:13.338Z,101808.72
2023-05-14T08:35:41.313Z,101816.59
2023-05-14T08:38:09.267Z,101813.84
2023-05-14T08:40:37.235Z,101811.94
2023-05-14T08:43:06.279Z,101816.38
2023-05-14T08:45:36.508Z,101816.38
2023-05-14T08:48:09.361Z,101811.81
2023-05-14T08:50:38.897Z,101804.47
2023-05-14T08:53:06.987Z,101797.22
2023-05-14T08:55:35.324Z,101792.75
2023-05-14T08:58:03.274Z,101793.47
2023-05-14T09:00:31.323Z,101804.88
2023-05-14T09:03:01.090Z,101794.97
2023-05-14T09:05:29.409Z,101792.13
2023-05-14T09:07:58.852Z,101791.09
2023-05-14T09:10:27.096Z,101787.50
2023-05-14T09:12:55.189Z,101786.53
2023-05-14T09:15:24.939Z,101784.63
2023-05-14T09:17:53.281Z,101785.53
2023-05-14T09:20:21.719Z,101774.81
2023-05-14T09:22:54.266Z,101776.44
2023-05-14T09:25:32.109Z,101772.97
2023-05-14T09:28:00.110Z,101774.56
2023-05-14T09:30:31.188Z,101766.50
2023-05-14T09:32:59.212Z,101764.69
2023-05-14T09:35:27.178Z,101766.44
2023-05-14T09:37:57.674Z,101755.53
2023-05-14T09:40:25.887Z,101759.94
2023-05-14T09:42:56.225Z,101763.44
2023-05-14T09:45:24.356Z,101762.47
2023-05-14T09:47:53.434Z,101758.06
2023-05-14T09:50:21.741Z,101753.47
2023-05-14T09:52:49.785Z,101754.28
2023-05-14T09:55:17.826Z,101754.28
2023-05-14T09:57:45.794Z,101748.91
2023-05-14T10:00:17.130Z,101750.66
2023-05-14T10:02:51.466Z,101750.75
2023-05-14T10:05:20.847Z,101750.81
2023-05-14T10:07:53.008Z,101741.03
2023-05-14T10:10:26.295Z,101742.75
2023-05-14T10:12:59.880Z,101749.88
2023-05-14T10:15:34.765Z,101742.75
2023-05-14T10:18:08.328Z,101742.75
2023-05-14T10:20:38.949Z,101738.19
2023-05-14T10:23:10.437Z,101740.06
2023-05-14T10:25:39.056Z,101741.84
2023-05-14T10:28:07.602Z,101734.72
2023-05-14T10:30:36.925Z,101736.47
2023-05-14T10:33:09.886Z,101734.72
2023-05-14T10:35:58.279Z,101731.09
2023-05-14T10:38:28.296Z,101729.34
2023-05-14T10:40:59.049Z,101725.75
2023-05-14T10:43:30.708Z,101723.13
2023-05-14T10:46:01.592Z,101717.69
2023-05-14T10:48:30.060Z,101717.75
2023-05-14T10:50:58.892Z,101712.34
2023-05-14T10:53:37.975Z,101713.25
2023-05-14T10:56:08.269Z,101713.34
2023-05-14T10:58:40.008Z,101711.53
2023-05-14T11:01:11.137Z,101706.28
2023-05-14T11:03:45.547Z,101701.78
2023-05-14T11:06:16.091Z,101704.34
2023-05-14T11:08:46.718Z,101698.03
2023-05-14T11:11:15.219Z,101698.84
2023-05-14T11:13:44.065Z,101690.78
2023-05-14T11:18:49.845Z,101691.56
2023-05-14T11:21:18.673Z,101688.88
2023-05-14T11:23:48.235Z,101688.81
2023-05-14T11:26:21.520Z,101687.00
2023-05-14T11:28:50.428Z,101689.59
2023-05-14T11:31:20.104Z,101682.50
2023-05-14T11:33:48.189Z,101682.41
2023-05-14T11:36:19.118Z,101680.63
2023-05-14T11:38:50.585Z,101668.94
2023-05-14T11:41:20.981Z,101663.47
2023-05-14T11:43:49.354Z,101667.13
2023-05-14T11:46:19.778Z,101663.47
2023-05-14T11:48:48.343Z,101664.34
2023-05-14T11:51:16.397Z,101648.25
2023-05-14T11:53:46.078Z,101651.81
2023-05-14T11:56:14.125Z,101670.50
2023-05-14T11:58:42.151Z,101662.44
2023-05-14T12:01:14.863Z,101656.13
2023-05-14T12:03:44.564Z,101657.94
2023-05-14T12:06:12.756Z,101656.13
2023-05-14T12:08:40.896Z,101658.75
2023-05-14T12:11:10.205Z,101646.19
2023-05-14T12:13:38.229Z,101652.50
2023-05-14T12:16:06.626Z,101640.91
2023-05-14T12:18:34.993Z,101648.03
2023-05-14T12:21:08.957Z,101639.09
2023-05-14T12:23:39.586Z,101635.47
2023-05-14T12:26:09.785Z,101634.41
2023-05-14T12:28:43.375Z,101629.06
2023-05-14T12:31:16.798Z,101635.28
2023-05-14T12:33:44.727Z,101639.72
2023-05-14T12:38:51.510Z,101629.84
2023-05-14T12:41:19.476Z,101629.91
2023-05-14T12:43:49.336Z,101632.69
2023-05-14T12:46:17.546Z,101628.28
2023-05-14T12:48:46.418Z,101630.97
2023-05-14T12:51:16.267Z,101628.28
2023-05-14T12:53:44.312Z,101624.75
2023-05-14T12:56:14.856Z,101626.56
2023-05-14T12:58:42.969Z,101611.34
2023-05-14T13:01:10.933Z,101616.69
2023-05-14T13:03:38.956Z,101616.69
2023-05-14T13:06:07.183Z,101610.38
2023-05-14T13:08:36.674Z,101613.81
2023-05-14T13:11:04.669Z,101614.72
2023-05-14T13:13:32.599Z,101610.22
2023-05-14T13:16:01.010Z,101608.41
2023-05-14T13:18:32.138Z,101611.84
2023-05-14T13:21:00.419Z,101602.94
2023-05-14T13:23:28.462Z,101598.44
2023-05-14T13:25:57.750Z,101613.59
2023-05-14T13:28:25.662Z,101609.09
2023-05-14T13:31:08.105Z,101602.78
2023-05-14T13:33:36.960Z,101608.22
2023-05-14T13:36:05.630Z,101595.69
2023-05-14T13:38:33.665Z,101596.53
2023-05-14T13:41:03.226Z,101602.78
2023-05-14T13:43:31.856Z,101597.41
2023-05-14T13:45:59.971Z,101599.22
2023-05-14T13:48:28.328Z,101596.53
2023-05-14T13:50:56.466Z,101591.28
2023-05-14T13:53:26.093Z,101591.06
2023-05-14T13:55:58.516Z,101589.19
2023-05-14T13:58:29.279Z,101579.31
2023-05-14T14:00:57.697Z,101576.63
2023-05-14T14:03:25.882Z,101574.75
2023-05-14T14:05:53.861Z,101578.41
2023-05-14T14:08:23.846Z,101588.22
2023-05-14T14:10:54.469Z,101581.06
2023-05-14T14:13:23.329Z,101571.28
2023-05-14T14:15:52.915Z,101561.41
2023-05-14T14:18:20.986Z,101566.78
2023-05-14T14:20:49.188Z,101565.91
2023-05-14T14:23:17.209Z,101557.78
2023-05-14T14:25:46.416Z,101559.63
2023-05-14T14:28:14.546Z,101556.03
2023-05-14T14:30:43.717Z,101552.44
2023-05-14T14:33:13.164Z,101547.06
2023-05-14T14:35:41.101Z,101543.53
2023-05-14T14:38:09.073Z,101547.13
2023-05-14T14:40:37.026Z,101553.34
2023-05-14T14:43:05.010Z,101552.44
2023-05-14T14:45:32.995Z,101552.44
2023-05-14T14:48:31.514Z,101542.63
2023-05-14T14:51:00.986Z,101547.94
2023-05-14T14:53:29.022Z,101549.81
2023-05-14T14:55:57.806Z,101543.59
2023-05-14T14:58:26.141Z,101542.63
2023-05-14T15:00:58.243Z,101544.38
2023-05-14T15:03:27.836Z,101543.44
2023-05-14T15:05:55.927Z,101537.19
2023-05-14T15:08:28.493Z,101543.44
2023-05-14T15:10:57.404Z,101550.53
2023-05-14T15:13:26.945Z,101541.63
2023-05-14T15:15:54.949Z,101551.31
2023-05-14T15:18:22.880Z,101539.81
2023-05-14T15:20:52.774Z,101546.91
2023-05-14T15:23:20.740Z,101537.13
2023-05-14T15:25:51.534Z,101541.53
2023-05-14T15:28:19.555Z,101532.72
2023-05-14T15:30:49.151Z,101533.59
2023-05-14T15:33:19.111Z,101534.50
2023-05-14T15:35:47.137Z,101531.84
2023-05-14T15:38:16.496Z,101530.03
2023-05-14T15:40:44.506Z,101524.75
2023-05-14T15:43:12.570Z,101527.34
2023-05-14T15:45:40.511Z,101517.56
2023-05-14T15:48:08.514Z,101518.47
2023-05-14T15:50:36.448Z,101513.13
2023-05-14T15:53:04.450Z,101517.63
2023-05-14T15:55:33.776Z,101518.47
2023-05-14T15:58:04.255Z,101516.75
2023-05-14T16:00:32.200Z,101513.13
2023-05-14T16:03:00.337Z,101507.75
2023-05-14T16:05:28.459Z,101514.09
2023-05-14T16:07:56.409Z,101517.63
2023-05-14T16:10:24.553Z,101528.34
2023-05-14T16:12:54.165Z,101515.91
2023-05-14T16:15:22.256Z,101515.03
2023-05-14T16:17:50.237Z,101515.91
2023-05-14T16:20:18.196Z,101519.44
2023-05-14T16:22:46.257Z,101516.75
2023-05-14T16:25:14.209Z,101520.31
2023-05-14T16:27:42.329Z,101508.72
2023-05-14T16:30:12.488Z,101516.75
2023-05-14T16:32:42.014Z,101509.56
2023-05-14T16:35:10.939Z,101506.03
2023-05-14T16:37:38.897Z,101511.41
2023-05-14T16:40:10.225Z,101507.84
2023-05-14T16:42:38.207Z,101510.53
2023-05-14T16:45:09.289Z,101505.16
2023-05-14T16:47:38.676Z,101507.00
2023-05-14T16:50:08.191Z,101505.16
2023-05-14T16:52:36.110Z,101508.78
2023-05-14T16:55:04.272Z,101509.69
2023-05-14T16:57:32.229Z,101515.03
2023-05-14T17:00:00.389Z,101509.69
2023-05-14T17:02:28.375Z,101511.47
2023-05-14T17:04:57.983Z,101512.34
2023-05-14T17:07:26.042Z,101507.00
2023-05-14T17:09:56.829Z,101513.22
2023-05-14T17:12:24.877Z,101507.91
2023-05-14T17:14:52.959Z,101501.63
2023-05-14T17:17:20.967Z,101500.94
2023-05-14T17:19:49.077Z,101508.78
2023-05-14T17:22:18.452Z,101508.78
2023-05-14T17:24:46.426Z,101507.00
2023-05-14T17:27:16.010Z,101513.28
2023-05-14T17:29:44.738Z,101509.69
2023-05-14T17:32:12.735Z,101510.53
2023-05-14T17:34:40.711Z,101515.03
2023-05-14T17:37:08.739Z,101513.28
2023-05-14T17:39:38.046Z,101504.38
2023-05-14T17:42:07.002Z,101507.91
2023-05-14T17:44:34.970Z,101514.16
2023-05-14T17:47:03.217Z,101513.28
2023-05-14T17:49:33.973Z,101514.25
2023-05-14T17:52:02.057Z,101519.63
2023-05-14T17:54:30.054Z,101520.56
2023-05-14T17:56:59.594Z,101522.28
2023-05-14T17:59:27.791Z,101523.25
2023-05-14T18:01:55.783Z,101529.59
2023-05-14T18:04:23.759Z,101524.22
2023-05-14T18:06:51.934Z,101526.81
2023-05-14T18:09:19.915Z,101525.94
2023-05-14T18:11:49.470Z,101529.59
2023-05-14T18:14:19.045Z,101536.66
2023-05-14T18:16:47.180Z,101535.81
2023-05-14T18:19:15.701Z,101535.81
2023-05-14T18:21:46.590Z,101527.75
2023-05-14T18:24:14.577Z,101535.81
2023-05-14T18:26:42.591Z,101533.13
2023-05-14T18:29:10.549Z,101529.59
2023-05-14T18:31:39.935Z,101531.31
2023-05-14T18:34:07.902Z,101532.25
2023-05-14T18:36:35.902Z,101543.00
2023-05-14T18:39:03.862Z,101537.63
2023-05-14T18:41:31.804Z,101541.25
2023-05-14T18:43:59.700Z,101537.63
2023-05-14T18:46:27.726Z,101540.31
2023-05-14T18:48:59.707Z,101541.25
2023-05-14T18:51:30.742Z,101538.56
2023-05-14T18:54:01.542Z,101539.50
2023-05-14T18:56:29.639Z,101543.91
2023-05-14T18:59:00.297Z,101544.78
2023-05-14T19:01:28.289Z,101547.56
2023-05-14T19:03:56.551Z,101559.16
2023-05-14T19:06:26.365Z,101557.34
2023-05-14T19:08:54.352Z,101547.56
2023-05-14T19:11:22.648Z,101552.94
2023-05-14T19:13:50.591Z,101561.84
2023-05-14T19:16:18.588Z,101549.38
2023-05-14T19:18:46.669Z,101550.25
2023-05-14T19:21:15.899Z,101563.66
2023-05-14T19:23:45.529Z,101566.34
2023-05-14T19:26:15.903Z,101561.94
2023-05-14T19:28:43.920Z,101560.97
2023-05-14T19:31:12.077Z,101560.13
2023-05-14T19:33:40.010Z,101561.06
2023-05-14T19:36:08.181Z,101562.00
2023-05-14T19:38:36.212Z,101565.53
2023-05-14T19:41:05.513Z,101572.81
2023-05-14T19:43:33.456Z,101568.31
2023-05-14T19:46:01.835Z,101571.00
2023-05-14T19:48:29.818Z,101573.78
2023-05-14T19:50:57.861Z,101575.59
2023-05-14T19:53:29.712Z,101575.59
2023-05-14T19:55:58.160Z,101574.66
2023-05-14T19:58:29.434Z,101571.88
2023-05-14T20:00:58.550Z,101567.47
2023-05-14T20:03:29.924Z,101574.56
2023-05-14T20:05:58.038Z,101574.47
2023-05-14T20:08:26.472Z,101563.81
2023-05-14T20:10:54.441Z,101570.03
2023-05-14T20:13:25.011Z,101577.22
2023-05-14T20:15:55.417Z,101572.81
2023-05-14T20:18:23.511Z,101574.56
2023-05-14T20:20:51.842Z,101571.09
2023-05-14T20:23:20.693Z,101568.31
2023-05-14T20:25:53.145Z,101574.56
2023-05-14T20:28:21.207Z,101570.16
2023-05-14T20:30:49.153Z,101571.97
2023-05-14T20:33:18.458Z,101573.78
2023-05-14T20:35:48.423Z,101578.19
2023-05-14T20:38:18.481Z,101571.09
2023-05-14T20:40:46.572Z,101576.47
2023-05-14T20:43:14.500Z,101572.13
2023-05-14T20:45:42.465Z,101576.53
2023-05-14T20:48:12.177Z,101582.75
2023-05-14T20:50:41.662Z,101578.34
2023-05-14T20:53:09.623Z,101588.22
2023-05-14T20:55:37.556Z,101586.41
2023-05-14T20:58:05.472Z,101582.84
2023-05-14T21:00:33.426Z,101578.44
2023-05-14T21:03:01.614Z,101575.78
2023-05-14T21:05:33.445Z,101566.94
2023-05-14T21:08:02.850Z,101578.44
2023-05-14T21:10:30.824Z,101561.66
2023-05-14T21:12:58.759Z,101564.25
2023-05-14T21:15:27.447Z,101571.44
2023-05-14T21:17:55.618Z,101587.53
2023-05-14T21:20:23.582Z,101574.13
2023-05-14T21:22:51.514Z,101577.66
2023-05-14T21:25:23.336Z,101571.44
2023-05-14T21:27:51.659Z,101565.19
2023-05-14T21:30:19.766Z,101569.72
2023-05-14T21:32:47.756Z,101566.22
2023-05-14T21:35:15.760Z,101566.22
2023-05-14T21:37:43.707Z,101565.31
2023-05-14T21:40:13.164Z,101559.94
2023-05-14T21:42:42.545Z,101565.31
2023-05-14T21:45:12.622Z,101557.31
2023-05-14T21:47:40.630Z,101565.38
2023-05-14T21:50:09.491Z,101561.91
2023-05-14T21:52:38.189Z,101560.16
2023-05-14T21:55:06.941Z,101553.09
2023-05-14T21:57:35.134Z,101554.91
2023-05-14T22:00:08.087Z,101541.66
2023-05-14T22:02:36.094Z,101532.75
2023-05-14T22:05:04.044Z,101535.44
2023-05-14T22:07:32.867Z,101532.84
2023-05-14T22:10:01.127Z,101541.75
2023-05-14T22:12:29.103Z,101532.84
2023-05-14T22:14:57.093Z,101535.53
2023-05-14T22:17:28.025Z,101538.22
2023-05-14T22:19:56.029Z,101534.66
2023-05-14T22:22:24.008Z,101533.78
2023-05-14T22:24:51.972Z,101530.22
2023-05-14T22:27:20.018Z,101524.09
2023-05-14T22:29:48.017Z,101525.94
2023-05-14T22:32:16.018Z,101533.97
2023-05-14T22:34:45.386Z,101526.84
2023-05-14T22:37:13.379Z,101529.63
2023-05-14T22:39:41.336Z,101530.44
2023-05-14T22:42:09.625Z,101529.53
2023-05-14T22:44:37.683Z,101526.09
2023-05-14T22:47:06.308Z,101525.22
2023-05-14T22:49:34.266Z,101521.69
2023-05-14T22:52:03.589Z,101519.00
2023-05-14T22:54:31.626Z,101509.22
2023-05-14T22:57:02.611Z,101515.53
2023-05-14T22:59:30.590Z,101512.84
2023-05-14T23:01:58.617Z,101508.44
2023-05-14T23:04:26.649Z,101513.88
2023-05-14T23:06:57.577Z,101511.19
2023-05-14T23:09:26.859Z,101501.44
2023-05-14T23:11:55.031Z,101504.97
2023-05-14T23:14:22.965Z,101507.66
2023-05-14T23:16:50.908Z,101511.28
2023-05-14T23:19:19.044Z,101505.06
2023-05-14T23:21:47.141Z,101504.22
2023-05-14T23:24:15.122Z,101501.53
2023-05-14T23:26:44.640Z,101506.03
2023-05-14T23:29:12.604Z,101507.84
2023-05-14T23:31:41.114Z,101500.66
2023-05-14T23:34:09.134Z,101500.72
2023-05-14T23:36:37.168Z,101496.22
2023-05-14T23:39:05.707Z,101490.00
2023-05-14T23:41:33.685Z,101487.31
2023-05-14T23:44:03.191Z,101480.25
2023-05-14T23:46:31.558Z,101479.44
2023-05-14T23:48:59.698Z,101478.53
2023-05-14T23:51:30.083Z,101467.81
2023-05-14T23:53:58.743Z,101470.47
2023-05-14T23:56:30.308Z,101476.78
2023-05-14T23:58:58.383Z,101484.81
